Impacts TAF Board INFO
FOR SITUATIONAL AWARENESS. NOT TO BE USED FOR FLIGHT PLANNING PURPOSES.
IDs:

KBOS - Boston/Logan Intl, MA, US

Issued at 1902 UTC 23 Jan 2018
Updated at 2116 UTC 23 Jan 2018
Potential Impact None Slight Moderate High
Time2054Z 23/22Z 23/23Z 24/00Z 24/01Z 24/02Z 24/03Z 24/04Z 24/05Z 24/06Z 24/07Z 24/08Z 24/09Z 24/10Z>>
Type OBS PRVL PRVL PRVL PRVL PRVL PRVL PRVL PRVL PRVL PRVL PRVL PRVL PRVL
VIS 10 2 4 >6 >6 >6 >6 >6 >6 >6 >6 >6 >6 >6
CIG 12 10 30 40 110 110 110 110 110 110 110 110 110 110
Cover OVC OVC OVC OVC BKN BKN BKN BKN BKN BKN BKN BKN BKN BKN
FltCat MVFR IFR MVFR VFR VFR VFR VFR VFR VFR VFR VFR VFR VFR VFR
WX -RA RA BR BR VCSH -- -- -- -- -- -- -- -- -- -- --
WDir 180 200 270 270 260 260 260 260 260 260 260 260 260 260
WSpd 11 20 7 6 7 7 7 7 7 7 7 7 7 7
WGst -- 32 21 -- 18 18 18 18 18 18 18 18 18 18

Raw TAF
KBOS 231902Z 2319/2424 08005KT 1 1/2SM +RA BR BKN004 BKN011 OVC017
  FM232000 20015G25KT 2SM RA BR OVC008 WS020/20055KT
  FM232100 20020G32KT 2SM RA BR OVC010
  FM232230 21015G25KT 3SM -RA OVC020 WS020/22045KT
  FM232300 27007G21KT 4SM BR VCSH OVC030 WS020/23035KT
  FM240000 27006KT P6SM OVC040
  FM240100 26007G18KT P6SM BKN110


Raw METAR
KBOS 232054Z 18011KT 10SM -RA FEW006 BKN012 OVC090 13/12 A2947 RMK AO2 PK WND 17034/2006 SLP978 P0015 60054 T01280122 56059
KBOS 232021Z 20014KT 3SM RA BR FEW004 SCT019 OVC065 12/11 A2947 RMK AO2 PK WND 17034/2006 P0013 T01170111
KBOS 232004Z 17023G31KT 2 1/2SM +RA BR FEW004 SCT019 OVC060 12/12 A2946 RMK AO2 PK WND 18031/2000 PRESFR P0006 T01220117
KBOS 231954Z 18021G25KT 1SM R04R/P6000FT +RA BR FEW003 SCT019 OVC055 12/12 A2948 RMK AO2 SFC VIS 3 PRESFR SLP983 P0020 T01170117
KBOS 231927Z 15006KT 1SM R04R/5500VP6000FT RA BR SCT004 BKN016 OVC023 06/05 A2955 RMK AO2 SFC VIS 2 P0009 T00560050
KBOS 231908Z 07005KT 1SM R04R/P6000FT RA BR SCT004 BKN011 OVC030 03/03 A2956 RMK AO2 SFC VIS 1 3/4 P0006 T00330033
KBOS 231854Z 08005KT 1 1/2SM +RA BR BKN004 BKN011 OVC017 03/03 A2958 RMK AO2 SLP017 P0019 T00330028
KBOS 231845Z 05006KT 1 1/2SM RA BR BKN004 OVC012 03/03 A2959 RMK AO2 SFC VIS 1 3/4 P0015 T00330028

METAR Board
Radar Display
Forecast Discussion

FOR SITUATIONAL AWARENESS. NOT TO BE USED FOR FLIGHT PLANNING PURPOSES.